sensor_id;sensor_type;location;lat;lon;timestamp;pressure;altitude;pressure_sealevel;temperature;humidity
19789;BME280;10054;59.332;18.244;2023-02-28T00:01:35;102052.56;;;1.56;100.00
19789;BME280;10054;59.332;18.244;2023-02-28T00:04:04;102066.43;;;1.55;100.00
19789;BME280;10054;59.332;18.244;2023-02-28T00:06:33;102067.30;;;1.55;100.00
19789;BME280;10054;59.332;18.244;2023-02-28T00:09:02;102066.00;;;1.55;100.00
19789;BME280;10054;59.332;18.244;2023-02-28T00:11:30;102069.47;;;1.56;100.00
19789;BME280;10054;59.332;18.244;2023-02-28T00:13:59;102064.70;;;1.55;100.00
19789;BME280;10054;59.332;18.244;2023-02-28T00:16:29;102066.87;;;1.54;100.00
19789;BME280;10054;59.332;18.244;2023-02-28T00:18:57;102076.84;;;1.53;100.00
19789;BME280;10054;59.332;18.244;2023-02-28T00:21:26;102070.77;;;1.53;100.00
19789;BME280;10054;59.332;18.244;2023-02-28T00:23:55;102074.67;;;1.51;100.00
19789;BME280;10054;59.332;18.244;2023-02-28T00:26:24;102067.74;;;1.50;100.00
19789;BME280;10054;59.332;18.244;2023-02-28T00:28:53;102072.95;;;1.49;100.00
19789;BME280;10054;59.332;18.244;2023-02-28T00:31:23;102075.11;;;1.49;100.00
19789;BME280;10054;59.332;18.244;2023-02-28T00:33:52;102077.31;;;1.48;100.00
19789;BME280;10054;59.332;18.244;2023-02-28T00:36:21;102068.22;;;1.48;100.00
19789;BME280;10054;59.332;18.244;2023-02-28T00:38:50;102078.62;;;1.47;100.00
19789;BME280;10054;59.332;18.244;2023-02-28T00:41:19;102068.22;;;1.47;100.00
19789;BME280;10054;59.332;18.244;2023-02-28T00:43:48;102077.75;;;1.45;100.00
19789;BME280;10054;59.332;18.244;2023-02-28T00:46:17;102072.55;;;1.42;100.00
19789;BME280;10054;59.332;18.244;2023-02-28T00:48:45;102074.30;;;1.40;100.00
19789;BME280;10054;59.332;18.244;2023-02-28T00:51:15;102075.59;;;1.38;100.00
19789;BME280;10054;59.332;18.244;2023-02-28T00:53:44;102069.53;;;1.38;100.00
19789;BME280;10054;59.332;18.244;2023-02-28T00:56:13;102069.53;;;1.39;100.00
19789;BME280;10054;59.332;18.244;2023-02-28T00:58:42;102081.23;;;1.39;100.00
19789;BME280;10054;59.332;18.244;2023-02-28T01:01:11;102068.23;;;1.35;100.00
19789;BME280;10054;59.332;18.244;2023-02-28T01:03:40;102066.50;;;1.34;100.00
19789;BME280;10054;59.332;18.244;2023-02-28T01:06:09;102063.47;;;1.33;100.00
19789;BME280;10054;59.332;18.244;2023-02-28T01:08:38;102053.08;;;1.29;100.00
19789;BME280;10054;59.332;18.244;2023-02-28T01:11:08;102050.05;;;1.25;100.00
19789;BME280;10054;59.332;18.244;2023-02-28T01:13:39;102053.08;;;1.23;100.00
19789;BME280;10054;59.332;18.244;2023-02-28T01:16:08;102050.48;;;1.20;100.00
19789;BME280;10054;59.332;18.244;2023-02-28T01:18:38;102054.39;;;1.17;100.00
19789;BME280;10054;59.332;18.244;2023-02-28T01:21:09;102058.29;;;1.14;100.00
19789;BME280;10054;59.332;18.244;2023-02-28T01:23:39;102051.36;;;1.15;100.00
19789;BME280;10054;59.332;18.244;2023-02-28T01:26:12;102056.13;;;1.14;100.00
19789;BME280;10054;59.332;18.244;2023-02-28T01:28:43;102056.55;;;1.18;100.00
19789;BME280;10054;59.332;18.244;2023-02-28T01:31:12;102061.30;;;1.37;100.00
19789;BME280;10054;59.332;18.244;2023-02-28T01:33:41;102058.27;;;1.36;100.00
19789;BME280;10054;59.332;18.244;2023-02-28T01:36:12;102050.91;;;1.26;100.00
19789;BME280;10054;59.332;18.244;2023-02-28T01:38:43;102057.85;;;1.16;100.00
19789;BME280;10054;59.332;18.244;2023-02-28T01:41:18;102060.89;;;1.11;100.00
19789;BME280;10054;59.332;18.244;2023-02-28T01:46:18;102060.02;;;1.03;100.00
19789;BME280;10054;59.332;18.244;2023-02-28T01:48:53;102061.33;;;0.97;100.00
19789;BME280;10054;59.332;18.244;2023-02-28T01:51:28;102056.56;;;0.92;100.00
19789;BME280;10054;59.332;18.244;2023-02-28T01:53:59;102057.86;;;0.90;100.00
19789;BME280;10054;59.332;18.244;2023-02-28T01:56:30;102058.72;;;0.88;100.00
19789;BME280;10054;59.332;18.244;2023-02-28T01:58:59;102063.05;;;0.87;100.00
19789;BME280;10054;59.332;18.244;2023-02-28T02:01:31;102050.06;;;0.84;100.00
19789;BME280;10054;59.332;18.244;2023-02-28T02:04:02;102053.09;;;0.84;100.00
19789;BME280;10054;59.332;18.244;2023-02-28T02:09:08;102047.03;;;0.82;100.00
19789;BME280;10054;59.332;18.244;2023-02-28T02:11:39;102050.92;;;0.82;100.00
19789;BME280;10054;59.332;18.244;2023-02-28T02:14:24;102045.30;;;0.78;100.00
19789;BME280;10054;59.332;18.244;2023-02-28T02:22:26;102051.79;;;0.76;100.00
19789;BME280;10054;59.332;18.244;2023-02-28T02:39:05;102046.16;;;0.81;100.00
19789;BME280;10054;59.332;18.244;2023-02-28T02:41:39;102051.36;;;0.78;100.00
19789;BME280;10054;59.332;18.244;2023-02-28T02:47:14;102048.35;;;0.67;100.00
19789;BME280;10054;59.332;18.244;2023-02-28T02:49:40;102049.64;;;0.65;100.00
19789;BME280;10054;59.332;18.244;2023-02-28T02:52:11;102049.20;;;0.62;100.00
19789;BME280;10054;59.332;18.244;2023-02-28T02:54:43;102044.88;;;0.61;100.00
19789;BME280;10054;59.332;18.244;2023-02-28T02:57:26;102044.02;;;0.59;100.00
19789;BME280;10054;59.332;18.244;2023-02-28T02:59:55;102044.45;;;0.59;100.00
19789;BME280;10054;59.332;18.244;2023-02-28T03:02:25;102040.11;;;0.58;100.00
19789;BME280;10054;59.332;18.244;2023-02-28T03:04:58;102033.19;;;0.58;100.00
19789;BME280;10054;59.332;18.244;2023-02-28T03:07:28;102033.19;;;0.58;100.00
19789;BME280;10054;59.332;18.244;2023-02-28T03:09:57;102036.22;;;0.59;100.00
19789;BME280;10054;59.332;18.244;2023-02-28T03:12:46;102042.28;;;0.60;100.00
19789;BME280;10054;59.332;18.244;2023-02-28T03:15:27;102039.25;;;0.60;100.00
19789;BME280;10054;59.332;18.244;2023-02-28T03:18:15;102033.63;;;0.61;100.00
19789;BME280;10054;59.332;18.244;2023-02-28T03:23:26;102028.00;;;0.63;100.00
19789;BME280;10054;59.332;18.244;2023-02-28T03:28:39;102037.95;;;0.62;100.00
19789;BME280;10054;59.332;18.244;2023-02-28T03:31:19;102047.05;;;0.60;100.00
19789;BME280;10054;59.332;18.244;2023-02-28T03:33:51;102047.47;;;0.58;100.00
19789;BME280;10054;59.332;18.244;2023-02-28T03:36:18;102040.98;;;0.57;100.00
19789;BME280;10054;59.332;18.244;2023-02-28T03:38:58;102038.81;;;0.55;100.00
19789;BME280;10054;59.332;18.244;2023-02-28T03:41:43;102044.44;;;0.54;100.00
19789;BME280;10054;59.332;18.244;2023-02-28T03:44:14;102041.84;;;0.59;100.00
19789;BME280;10054;59.332;18.244;2023-02-28T03:46:40;102044.02;;;0.69;100.00
19789;BME280;10054;59.332;18.244;2023-02-28T03:49:15;102052.67;;;0.66;100.00
19789;BME280;10054;59.332;18.244;2023-02-28T03:51:45;102048.77;;;0.60;100.00
19789;BME280;10054;59.332;18.244;2023-02-28T03:54:18;102050.50;;;0.55;100.00
19789;BME280;10054;59.332;18.244;2023-02-28T03:59:44;102044.42;;;0.48;100.00
19789;BME280;10054;59.332;18.244;2023-02-28T04:02:08;102035.77;;;0.46;100.00
19789;BME280;10054;59.332;18.244;2023-02-28T04:04:37;102032.73;;;0.44;100.00
19789;BME280;10054;59.332;18.244;2023-02-28T04:07:09;102035.33;;;0.44;100.00
19789;BME280;10054;59.332;18.244;2023-02-28T04:09:39;102035.77;;;0.43;100.00
19789;BME280;10054;59.332;18.244;2023-02-28T04:12:08;102024.52;;;0.43;100.00
19789;BME280;10054;59.332;18.244;2023-02-28T04:14:37;102026.24;;;0.42;100.00
19789;BME280;10054;59.332;18.244;2023-02-28T04:17:06;102032.30;;;0.41;100.00
19789;BME280;10054;59.332;18.244;2023-02-28T04:19:34;102029.70;;;0.40;100.00
19789;BME280;10054;59.332;18.244;2023-02-28T04:22:03;102033.16;;;0.37;100.00
19789;BME280;10054;59.332;18.244;2023-02-28T04:24:32;102033.16;;;0.36;100.00
19789;BME280;10054;59.332;18.244;2023-02-28T04:27:01;102033.16;;;0.36;100.00
19789;BME280;10054;59.332;18.244;2023-02-28T04:29:31;102029.69;;;0.35;100.00
19789;BME280;10054;59.332;18.244;2023-02-28T04:32:00;102018.88;;;0.37;100.00
19789;BME280;10054;59.332;18.244;2023-02-28T04:34:31;102022.77;;;0.34;100.00
19789;BME280;10054;59.332;18.244;2023-02-28T04:37:00;102018.87;;;0.32;100.00
19789;BME280;10054;59.332;18.244;2023-02-28T04:39:30;102011.52;;;0.30;100.00
19789;BME280;10054;59.332;18.244;2023-02-28T04:42:00;102005.88;;;0.28;100.00
19789;BME280;10054;59.332;18.244;2023-02-28T04:44:29;102005.45;;;0.27;100.00
19789;BME280;10054;59.332;18.244;2023-02-28T04:46:59;102006.31;;;0.26;100.00
19789;BME280;10054;59.332;18.244;2023-02-28T04:49:27;102010.64;;;0.25;100.00
19789;BME280;10054;59.332;18.244;2023-02-28T04:51:56;102028.82;;;0.33;100.00
19789;BME280;10054;59.332;18.244;2023-02-28T04:54:25;102033.60;;;0.46;100.00
19789;BME280;10054;59.332;18.244;2023-02-28T04:56:55;102036.20;;;0.43;100.00
19789;BME280;10054;59.332;18.244;2023-02-28T04:59:23;102038.34;;;0.37;100.00
19789;BME280;10054;59.332;18.244;2023-02-28T05:01:54;102033.58;;;0.32;100.00
19789;BME280;10054;59.332;18.244;2023-02-28T05:04:22;102038.75;;;0.27;100.00
19789;BME280;10054;59.332;18.244;2023-02-28T05:06:51;102046.10;;;0.25;100.00
19789;BME280;10054;59.332;18.244;2023-02-28T05:09:20;102048.69;;;0.23;100.00
19789;BME280;10054;59.332;18.244;2023-02-28T05:11:49;102038.73;;;0.21;100.00
19789;BME280;10054;59.332;18.244;2023-02-28T05:14:17;102038.30;;;0.19;100.00
19789;BME280;10054;59.332;18.244;2023-02-28T05:16:48;102040.02;;;0.15;100.00
19789;BME280;10054;59.332;18.244;2023-02-28T05:19:17;102044.77;;;0.11;100.00
19789;BME280;10054;59.332;18.244;2023-02-28T05:21:51;102050.81;;;0.10;100.00
19789;BME280;10054;59.332;18.244;2023-02-28T05:24:21;102050.37;;;0.08;100.00
19789;BME280;10054;59.332;18.244;2023-02-28T05:26:54;102060.31;;;0.07;100.00
19789;BME280;10054;59.332;18.244;2023-02-28T05:29:23;102055.55;;;0.06;100.00
19789;BME280;10054;59.332;18.244;2023-02-28T05:31:52;102054.25;;;0.05;100.00
19789;BME280;10054;59.332;18.244;2023-02-28T05:34:20;102057.70;;;0.04;100.00
19789;BME280;10054;59.332;18.244;2023-02-28T05:36:49;102051.66;;;0.03;100.00
19789;BME280;10054;59.332;18.244;2023-02-28T05:39:18;102050.36;;;0.05;100.00
19789;BME280;10054;59.332;18.244;2023-02-28T05:41:47;102055.55;;;0.05;100.00
19789;BME280;10054;59.332;18.244;2023-02-28T05:44:16;102067.23;;;0.06;100.00
19789;BME280;10054;59.332;18.244;2023-02-28T05:46:44;102059.45;;;0.06;100.00
19789;BME280;10054;59.332;18.244;2023-02-28T05:49:13;102065.93;;;0.06;100.00
19789;BME280;10054;59.332;18.244;2023-02-28T05:51:41;102064.20;;;0.07;100.00
19789;BME280;10054;59.332;18.244;2023-02-28T05:54:10;102066.80;;;0.05;100.00
19789;BME280;10054;59.332;18.244;2023-02-28T05:56:38;102062.91;;;0.05;100.00
19789;BME280;10054;59.332;18.244;2023-02-28T05:59:08;102061.61;;;0.05;100.00
19789;BME280;10054;59.332;18.244;2023-02-28T06:01:39;102062.08;;;0.17;100.00
19789;BME280;10054;59.332;18.244;2023-02-28T06:04:09;102060.39;;;0.29;100.00
19789;BME280;10054;59.332;18.244;2023-02-28T06:06:39;102062.55;;;0.27;100.00
19789;BME280;10054;59.332;18.244;2023-02-28T06:09:08;102072.47;;;0.20;100.00
19789;BME280;10054;59.332;18.244;2023-02-28T06:11:37;102071.16;;;0.14;100.00
19789;BME280;10054;59.332;18.244;2023-02-28T06:14:06;102071.14;;;0.11;100.00
19789;BME280;10054;59.332;18.244;2023-02-28T06:16:35;102080.22;;;0.09;100.00
19789;BME280;10054;59.332;18.244;2023-02-28T06:19:04;102081.94;;;0.09;100.00
19789;BME280;10054;59.332;18.244;2023-02-28T06:21:33;102080.20;;;0.08;100.00
19789;BME280;10054;59.332;18.244;2023-02-28T06:24:02;102082.38;;;0.08;100.00
19789;BME280;10054;59.332;18.244;2023-02-28T06:26:31;102085.40;;;0.08;100.00
19789;BME280;10054;59.332;18.244;2023-02-28T06:29:00;102083.25;;;0.10;100.00
19789;BME280;10054;59.332;18.244;2023-02-28T06:31:30;102087.14;;;0.12;100.00
19789;BME280;10054;59.332;18.244;2023-02-28T06:33:59;102085.44;;;0.17;100.00
19789;BME280;10054;59.332;18.244;2023-02-28T06:36:28;102078.53;;;0.20;100.00
19789;BME280;10054;59.332;18.244;2023-02-28T06:38:56;102080.70;;;0.24;100.00
19789;BME280;10054;59.332;18.244;2023-02-28T06:41:26;102078.55;;;0.26;100.00
19789;BME280;10054;59.332;18.244;2023-02-28T06:43:55;102079.86;;;0.32;100.00
19789;BME280;10054;59.332;18.244;2023-02-28T06:46:24;102082.05;;;0.39;100.00
19789;BME280;10054;59.332;18.244;2023-02-28T06:48:53;102084.23;;;0.44;100.00
19789;BME280;10054;59.332;18.244;2023-02-28T06:51:21;102084.23;;;0.49;100.00
19789;BME280;10054;59.332;18.244;2023-02-28T06:53:52;102095.50;;;0.54;100.00
19789;BME280;10054;59.332;18.244;2023-02-28T06:56:20;102088.16;;;0.59;100.00
19789;BME280;10054;59.332;18.244;2023-02-28T06:58:50;102088.16;;;0.64;100.00
19789;BME280;10054;59.332;18.244;2023-02-28T07:01:20;102085.58;;;0.70;100.00
19789;BME280;10054;59.332;18.244;2023-02-28T07:03:51;102085.55;;;0.76;100.00
19789;BME280;10054;59.332;18.244;2023-02-28T07:06:23;102087.30;;;0.82;100.00
19789;BME280;10054;59.332;18.244;2023-02-28T07:08:53;102079.08;;;0.88;100.00
19789;BME280;10054;59.332;18.244;2023-02-28T07:11:24;102082.98;;;0.97;100.00
19789;BME280;10054;59.332;18.244;2023-02-28T07:13:55;102082.11;;;1.18;100.00
19789;BME280;10054;59.332;18.244;2023-02-28T07:16:25;102086.44;;;1.31;100.00
19789;BME280;10054;59.332;18.244;2023-02-28T07:18:54;102083.40;;;1.34;100.00
19789;BME280;10054;59.332;18.244;2023-02-28T07:21:23;102090.33;;;1.35;100.00
19789;BME280;10054;59.332;18.244;2023-02-28T07:23:53;102089.47;;;1.37;100.00
19789;BME280;10054;59.332;18.244;2023-02-28T07:26:21;102089.03;;;1.41;100.00
19789;BME280;10054;59.332;18.244;2023-02-28T07:28:50;102089.02;;;1.42;100.00
19789;BME280;10054;59.332;18.244;2023-02-28T07:31:19;102087.72;;;1.47;100.00
19789;BME280;10054;59.332;18.244;2023-02-28T07:33:47;102085.95;;;1.52;100.00
19789;BME280;10054;59.332;18.244;2023-02-28T07:36:17;102079.44;;;1.56;100.00
19789;BME280;10054;59.332;18.244;2023-02-28T07:38:48;102089.83;;;1.62;100.00
19789;BME280;10054;59.332;18.244;2023-02-28T07:41:21;102083.31;;;1.67;100.00
19789;BME280;10054;59.332;18.244;2023-02-28T07:43:54;102085.91;;;1.72;100.00
19789;BME280;10054;59.332;18.244;2023-02-28T07:46:24;102075.92;;;1.73;100.00
19789;BME280;10054;59.332;18.244;2023-02-28T07:48:53;102085.89;;;1.76;100.00
19789;BME280;10054;59.332;18.244;2023-02-28T07:51:24;102074.60;;;1.80;100.00
19789;BME280;10054;59.332;18.244;2023-02-28T07:53:54;102075.89;;;1.86;100.00
19789;BME280;10054;59.332;18.244;2023-02-28T07:56:23;102073.27;;;1.91;100.00
19789;BME280;10054;59.332;18.244;2023-02-28T07:58:52;102074.98;;;1.96;100.00
19789;BME280;10054;59.332;18.244;2023-02-28T08:01:21;102079.73;;;2.03;100.00
19789;BME280;10054;59.332;18.244;2023-02-28T08:03:49;102081.44;;;2.10;100.00
19789;BME280;10054;59.332;18.244;2023-02-28T08:06:21;102076.63;;;2.17;100.00
19789;BME280;10054;59.332;18.244;2023-02-28T08:08:50;102072.66;;;2.25;100.00
19789;BME280;10054;59.332;18.244;2023-02-28T08:11:19;102064.39;;;2.28;100.00
19789;BME280;10054;59.332;18.244;2023-02-28T08:13:49;102061.76;;;2.35;100.00
19789;BME280;10054;59.332;18.244;2023-02-28T08:16:18;102060.42;;;2.41;100.00
19789;BME280;10054;59.332;18.244;2023-02-28T08:18:52;102066.46;;;2.47;100.00
19789;BME280;10054;59.332;18.244;2023-02-28T08:21:21;102065.54;;;2.56;100.00
19789;BME280;10054;59.332;18.244;2023-02-28T08:23:51;102072.88;;;2.62;100.00
19789;BME280;10054;59.332;18.244;2023-02-28T08:26:20;102064.59;;;2.69;100.00
19789;BME280;10054;59.332;18.244;2023-02-28T08:28:49;102065.84;;;2.77;100.00
19789;BME280;10054;59.332;18.244;2023-02-28T08:31:18;102075.34;;;2.84;100.00
19789;BME280;10054;59.332;18.244;2023-02-28T08:33:47;102072.22;;;2.95;100.00
19789;BME280;10054;59.332;18.244;2023-02-28T08:36:17;102073.44;;;3.01;100.00
19789;BME280;10054;59.332;18.244;2023-02-28T08:38:49;102072.96;;;3.06;100.00
19789;BME280;10054;59.332;18.244;2023-02-28T08:41:17;102062.48;;;3.12;100.00
19789;BME280;10054;59.332;18.244;2023-02-28T08:43:45;102068.50;;;3.20;100.00
19789;BME280;10054;59.332;18.244;2023-02-28T08:46:15;102067.17;;;3.22;100.00
19789;BME280;10054;59.332;18.244;2023-02-28T08:48:44;102065.88;;;3.22;100.00
19789;BME280;10054;59.332;18.244;2023-02-28T08:51:16;102065.88;;;3.22;100.00
19789;BME280;10054;59.332;18.244;2023-02-28T08:53:46;102053.67;;;3.25;100.00
19789;BME280;10054;59.332;18.244;2023-02-28T08:56:17;102063.63;;;3.29;100.00
19789;BME280;10054;59.332;18.244;2023-02-28T08:58:47;102056.69;;;3.28;100.00
19789;BME280;10054;59.332;18.244;2023-02-28T09:01:21;102062.34;;;3.27;100.00
19789;BME280;10054;59.332;18.244;2023-02-28T09:03:51;102052.77;;;3.29;100.00
19789;BME280;10054;59.332;18.244;2023-02-28T09:06:21;102052.31;;;3.32;100.00
19789;BME280;10054;59.332;18.244;2023-02-28T09:08:50;102050.08;;;3.37;100.00
19789;BME280;10054;59.332;18.244;2023-02-28T09:11:19;102051.27;;;3.49;100.00
19789;BME280;10054;59.332;18.244;2023-02-28T09:13:50;102038.51;;;3.62;100.00
19789;BME280;10054;59.332;18.244;2023-02-28T09:16:18;102039.66;;;3.73;100.00
19789;BME280;10054;59.332;18.244;2023-02-28T09:18:47;102032.11;;;3.86;100.00
19789;BME280;10054;59.332;18.244;2023-02-28T09:21:17;102016.37;;;3.92;100.00
19789;BME280;10054;59.332;18.244;2023-02-28T09:23:48;102023.66;;;4.01;100.00
19789;BME280;10054;59.332;18.244;2023-02-28T09:26:20;102012.22;;;4.11;100.00
19789;BME280;10054;59.332;18.244;2023-02-28T09:28:50;102011.65;;;4.20;100.00
19789;BME280;10054;59.332;18.244;2023-02-28T09:31:21;102009.37;;;4.27;100.00
19789;BME280;10054;59.332;18.244;2023-02-28T09:33:52;102007.91;;;4.38;100.00
19789;BME280;10054;59.332;18.244;2023-02-28T09:36:24;102004.34;;;4.44;100.00
19789;BME280;10054;59.332;18.244;2023-02-28T09:38:53;102008.16;;;4.48;100.00
19789;BME280;10054;59.332;18.244;2023-02-28T09:41:24;102005.92;;;4.52;100.00
19789;BME280;10054;59.332;18.244;2023-02-28T09:43:56;102007.53;;;4.61;100.00
19789;BME280;10054;59.332;18.244;2023-02-28T09:46:35;102006.16;;;4.66;100.00
19789;BME280;10054;59.332;18.244;2023-02-28T09:49:17;102009.23;;;4.63;100.00
19789;BME280;10054;59.332;18.244;2023-02-28T09:51:56;102006.57;;;4.67;100.00
19789;BME280;10054;59.332;18.244;2023-02-28T09:54:31;102003.07;;;4.68;100.00
19789;BME280;10054;59.332;18.244;2023-02-28T10:02:41;102010.44;;;4.70;99.72
19789;BME280;10054;59.332;18.244;2023-02-28T10:05:22;102006.50;;;4.71;99.71
19789;BME280;10054;59.332;18.244;2023-02-28T10:08:01;102007.39;;;4.70;100.00
19789;BME280;10054;59.332;18.244;2023-02-28T10:10:39;102009.53;;;4.72;100.00
19789;BME280;10054;59.332;18.244;2023-02-28T10:13:33;102011.75;;;4.70;99.45
19789;BME280;10054;59.332;18.244;2023-02-28T10:16:10;102024.80;;;4.71;99.00
19789;BME280;10054;59.332;18.244;2023-02-28T10:18:40;102026.94;;;4.73;100.00
19789;BME280;10054;59.332;18.244;2023-02-28T10:21:13;102032.52;;;4.79;99.93
19789;BME280;10054;59.332;18.244;2023-02-28T10:23:39;102036.88;;;4.78;99.05
19789;BME280;10054;59.332;18.244;2023-02-28T10:26:12;102038.12;;;4.83;99.24
19789;BME280;10054;59.332;18.244;2023-02-28T10:28:43;102038.48;;;4.87;98.82
19789;BME280;10054;59.332;18.244;2023-02-28T10:31:18;102039.70;;;4.93;98.02
19789;BME280;10054;59.332;18.244;2023-02-28T10:33:47;102034.94;;;4.91;97.57
19789;BME280;10054;59.332;18.244;2023-02-28T10:36:18;102034.48;;;4.91;98.00
19789;BME280;10054;59.332;18.244;2023-02-28T10:38:48;102037.08;;;4.93;98.24
19789;BME280;10054;59.332;18.244;2023-02-28T10:41:31;102033.66;;;4.89;97.53
19789;BME280;10054;59.332;18.244;2023-02-28T10:44:22;102038.95;;;4.85;98.23
19789;BME280;10054;59.332;18.244;2023-02-28T10:46:52;102028.55;;;4.82;98.75
19789;BME280;10054;59.332;18.244;2023-02-28T10:49:23;102022.48;;;4.80;98.54
19789;BME280;10054;59.332;18.244;2023-02-28T10:51:54;102028.11;;;4.82;98.89
19789;BME280;10054;59.332;18.244;2023-02-28T10:54:33;102027.98;;;4.90;98.88
19789;BME280;10054;59.332;18.244;2023-02-28T10:57:20;102030.49;;;4.96;98.56
19789;BME280;10054;59.332;18.244;2023-02-28T10:59:53;102033.42;;;5.03;98.60
19789;BME280;10054;59.332;18.244;2023-02-28T11:02:35;102020.24;;;5.09;98.30
19789;BME280;10054;59.332;18.244;2023-02-28T11:08:15;102031.77;;;5.21;96.68
19789;BME280;10054;59.332;18.244;2023-02-28T11:10:59;102038.64;;;5.27;96.64
19789;BME280;10054;59.332;18.244;2023-02-28T11:13:20;102035.05;;;5.33;95.89
19789;BME280;10054;59.332;18.244;2023-02-28T11:15:52;102033.64;;;5.39;95.53
19789;BME280;10054;59.332;18.244;2023-02-28T11:18:30;102034.80;;;5.46;95.71
19789;BME280;10054;59.332;18.244;2023-02-28T11:21:01;102029.01;;;5.53;94.74
19789;BME280;10054;59.332;18.244;2023-02-28T11:23:33;102024.91;;;5.62;95.51
19789;BME280;10054;59.332;18.244;2023-02-28T11:26:04;102017.31;;;5.71;95.42
19789;BME280;10054;59.332;18.244;2023-02-28T11:28:42;102023.77;;;5.75;93.87
19789;BME280;10054;59.332;18.244;2023-02-28T11:33:54;102018.83;;;5.82;94.14
19789;BME280;10054;59.332;18.244;2023-02-28T11:36:29;102030.07;;;5.89;93.74
19789;BME280;10054;59.332;18.244;2023-02-28T11:39:08;102021.28;;;5.91;93.56
19789;BME280;10054;59.332;18.244;2023-02-28T11:44:41;102021.92;;;6.01;93.11
19789;BME280;10054;59.332;18.244;2023-02-28T11:47:17;102019.30;;;6.01;92.17
19789;BME280;10054;59.332;18.244;2023-02-28T11:50:03;102014.45;;;6.04;92.44
19789;BME280;10054;59.332;18.244;2023-02-28T11:52:45;102014.86;;;6.05;91.78
19789;BME280;10054;59.332;18.244;2023-02-28T12:20:31;101988.28;;;6.02;92.42
19789;BME280;10054;59.332;18.244;2023-02-28T12:26:11;101985.47;;;6.11;91.48
19789;BME280;10054;59.332;18.244;2023-02-28T12:28:46;101981.81;;;6.18;92.00
19789;BME280;10054;59.332;18.244;2023-02-28T12:31:14;101972.13;;;6.22;90.38
19789;BME280;10054;59.332;18.244;2023-02-28T12:33:45;101972.87;;;6.27;91.77
19789;BME280;10054;59.332;18.244;2023-02-28T12:36:15;101974.53;;;6.31;91.99
19789;BME280;10054;59.332;18.244;2023-02-28T12:39:10;101973.60;;;6.34;90.94
19789;BME280;10054;59.332;18.244;2023-02-28T12:44:34;101965.94;;;6.44;90.47
19789;BME280;10054;59.332;18.244;2023-02-28T12:47:05;101965.86;;;6.47;89.00
19789;BME280;10054;59.332;18.244;2023-02-28T12:49:44;101974.03;;;6.52;89.75
19789;BME280;10054;59.332;18.244;2023-02-28T12:52:12;101978.30;;;6.56;89.97
19789;BME280;10054;59.332;18.244;2023-02-28T12:54:55;101985.38;;;6.53;88.75
19789;BME280;10054;59.332;18.244;2023-02-28T12:57:36;101987.55;;;6.53;89.76
19789;BME280;10054;59.332;18.244;2023-02-28T13:00:16;101984.97;;;6.52;89.94
19789;BME280;10054;59.332;18.244;2023-02-28T13:08:28;101978.66;;;6.41;89.73
19789;BME280;10054;59.332;18.244;2023-02-28T13:10:55;101981.33;;;6.40;89.70
19789;BME280;10054;59.332;18.244;2023-02-28T13:13:26;101978.18;;;6.43;90.30
19789;BME280;10054;59.332;18.244;2023-02-28T13:16:04;101979.87;;;6.46;89.26
19789;BME280;10054;59.332;18.244;2023-02-28T13:18:36;101976.01;;;6.43;89.06
19789;BME280;10054;59.332;18.244;2023-02-28T13:21:08;101969.08;;;6.40;89.62
19789;BME280;10054;59.332;18.244;2023-02-28T13:26:18;101966.94;;;6.38;89.23
19789;BME280;10054;59.332;18.244;2023-02-28T13:31:20;101976.05;;;6.41;88.84
19789;BME280;10054;59.332;18.244;2023-02-28T13:36:31;101969.42;;;6.44;89.51
19789;BME280;10054;59.332;18.244;2023-02-28T13:39:01;101967.17;;;6.47;89.38
19789;BME280;10054;59.332;18.244;2023-02-28T13:44:13;101978.48;;;6.49;89.88
19789;BME280;10054;59.332;18.244;2023-02-28T13:49:25;101979.15;;;6.39;89.10
19789;BME280;10054;59.332;18.244;2023-02-28T13:57:53;101981.64;;;6.26;89.59
19789;BME280;10054;59.332;18.244;2023-02-28T14:03:41;101986.30;;;6.13;89.70
19789;BME280;10054;59.332;18.244;2023-02-28T14:08:50;101967.78;;;6.02;90.66
19789;BME280;10054;59.332;18.244;2023-02-28T14:11:32;101969.22;;;5.96;90.62
19789;BME280;10054;59.332;18.244;2023-02-28T14:14:03;101973.66;;;5.93;91.15
19789;BME280;10054;59.332;18.244;2023-02-28T14:16:44;101976.73;;;5.93;90.88
19789;BME280;10054;59.332;18.244;2023-02-28T14:19:27;101974.14;;;5.91;91.06
19789;BME280;10054;59.332;18.244;2023-02-28T14:25:26;101982.38;;;5.94;91.78
19789;BME280;10054;59.332;18.244;2023-02-28T14:28:06;101980.69;;;5.91;91.70
19789;BME280;10054;59.332;18.244;2023-02-28T14:33:26;101987.66;;;5.92;91.65
19789;BME280;10054;59.332;18.244;2023-02-28T14:36:00;101977.66;;;5.90;91.98
19789;BME280;10054;59.332;18.244;2023-02-28T14:38:32;101978.48;;;5.92;92.06
19789;BME280;10054;59.332;18.244;2023-02-28T14:41:04;101964.53;;;5.92;91.51
19789;BME280;10054;59.332;18.244;2023-02-28T14:43:33;101966.70;;;5.92;91.83
19789;BME280;10054;59.332;18.244;2023-02-28T14:46:04;101971.42;;;5.94;91.84
19789;BME280;10054;59.332;18.244;2023-02-28T14:48:35;101971.08;;;5.92;91.43
19789;BME280;10054;59.332;18.244;2023-02-28T14:51:05;101962.80;;;5.91;91.39
19789;BME280;10054;59.332;18.244;2023-02-28T14:53:38;101964.56;;;5.90;91.59
19789;BME280;10054;59.332;18.244;2023-02-28T14:56:17;101954.12;;;5.87;90.86
19789;BME280;10054;59.332;18.244;2023-02-28T14:58:38;101959.01;;;5.83;91.35
19789;BME280;10054;59.332;18.244;2023-02-28T15:01:10;101953.84;;;5.80;91.72
19789;BME280;10054;59.332;18.244;2023-02-28T15:03:40;101950.45;;;5.75;91.56